sensor_id;sensor_type;location;lat;lon;timestamp;temperature;humidity
20973;DHT22;10645;52.370;13.314;2024-03-22T00:00:21;5.50;99.90
20973;DHT22;10645;52.370;13.314;2024-03-22T00:02:47;5.60;99.90
20973;DHT22;10645;52.370;13.314;2024-03-22T00:05:13;5.70;99.90
20973;DHT22;10645;52.370;13.314;2024-03-22T00:07:40;5.80;99.90
20973;DHT22;10645;52.370;13.314;2024-03-22T00:10:06;5.90;99.90
20973;DHT22;10645;52.370;13.314;2024-03-22T00:12:32;6.00;99.90
20973;DHT22;10645;52.370;13.314;2024-03-22T00:14:58;6.10;99.90
20973;DHT22;10645;52.370;13.314;2024-03-22T00:17:24;6.20;99.90
20973;DHT22;10645;52.370;13.314;2024-03-22T00:19:50;6.30;99.90
20973;DHT22;10645;52.370;13.314;2024-03-22T00:22:16;6.30;99.90
20973;DHT22;10645;52.370;13.314;2024-03-22T00:24:43;6.30;99.90
20973;DHT22;10645;52.370;13.314;2024-03-22T00:27:09;6.40;99.90
20973;DHT22;10645;52.370;13.314;2024-03-22T00:29:37;6.40;99.90
20973;DHT22;10645;52.370;13.314;2024-03-22T00:32:04;6.40;99.90
20973;DHT22;10645;52.370;13.314;2024-03-22T00:34:30;6.40;99.90
20973;DHT22;10645;52.370;13.314;2024-03-22T00:36:56;6.30;99.90
20973;DHT22;10645;52.370;13.314;2024-03-22T00:39:22;6.30;99.90
20973;DHT22;10645;52.370;13.314;2024-03-22T00:41:48;6.20;99.90
20973;DHT22;10645;52.370;13.314;2024-03-22T00:44:14;6.20;99.90
20973;DHT22;10645;52.370;13.314;2024-03-22T00:46:40;6.20;99.90
20973;DHT22;10645;52.370;13.314;2024-03-22T00:49:06;6.30;99.90
20973;DHT22;10645;52.370;13.314;2024-03-22T00:51:33;6.30;99.90
20973;DHT22;10645;52.370;13.314;2024-03-22T00:53:59;6.30;99.90
20973;DHT22;10645;52.370;13.314;2024-03-22T00:56:25;6.40;99.90
20973;DHT22;10645;52.370;13.314;2024-03-22T00:58:51;6.40;99.90
20973;DHT22;10645;52.370;13.314;2024-03-22T01:01:17;6.50;99.90
20973;DHT22;10645;52.370;13.314;2024-03-22T01:03:43;6.50;99.90
20973;DHT22;10645;52.370;13.314;2024-03-22T01:06:10;6.50;99.90
20973;DHT22;10645;52.370;13.314;2024-03-22T01:08:36;6.50;99.90
20973;DHT22;10645;52.370;13.314;2024-03-22T01:11:02;6.50;99.90
20973;DHT22;10645;52.370;13.314;2024-03-22T01:13:28;6.40;99.90
20973;DHT22;10645;52.370;13.314;2024-03-22T01:15:54;6.40;99.90
20973;DHT22;10645;52.370;13.314;2024-03-22T01:18:20;6.30;99.90
20973;DHT22;10645;52.370;13.314;2024-03-22T01:20:46;6.40;99.90
20973;DHT22;10645;52.370;13.314;2024-03-22T01:23:12;6.30;99.90
20973;DHT22;10645;52.370;13.314;2024-03-22T01:25:38;6.30;99.90
20973;DHT22;10645;52.370;13.314;2024-03-22T01:28:05;6.40;99.90
20973;DHT22;10645;52.370;13.314;2024-03-22T01:30:31;6.30;99.90
20973;DHT22;10645;52.370;13.314;2024-03-22T01:32:59;6.40;99.90
20973;DHT22;10645;52.370;13.314;2024-03-22T01:35:25;6.40;99.90
20973;DHT22;10645;52.370;13.314;2024-03-22T01:37:51;6.50;99.90
20973;DHT22;10645;52.370;13.314;2024-03-22T01:40:17;6.50;99.90
20973;DHT22;10645;52.370;13.314;2024-03-22T01:42:44;6.50;99.90
20973;DHT22;10645;52.370;13.314;2024-03-22T01:45:11;6.60;99.90
20973;DHT22;10645;52.370;13.314;2024-03-22T01:47:39;6.60;99.90
20973;DHT22;10645;52.370;13.314;2024-03-22T01:50:06;6.70;99.90
20973;DHT22;10645;52.370;13.314;2024-03-22T01:52:33;6.70;99.90
20973;DHT22;10645;52.370;13.314;2024-03-22T01:54:59;6.70;99.90
20973;DHT22;10645;52.370;13.314;2024-03-22T01:57:25;6.80;99.90
20973;DHT22;10645;52.370;13.314;2024-03-22T01:59:53;6.80;99.90
20973;DHT22;10645;52.370;13.314;2024-03-22T02:02:21;6.80;99.90
20973;DHT22;10645;52.370;13.314;2024-03-22T02:04:50;6.80;99.90
20973;DHT22;10645;52.370;13.314;2024-03-22T02:07:17;6.90;99.90
20973;DHT22;10645;52.370;13.314;2024-03-22T02:09:43;6.90;99.90
20973;DHT22;10645;52.370;13.314;2024-03-22T02:12:09;6.90;99.90
20973;DHT22;10645;52.370;13.314;2024-03-22T02:14:35;6.90;99.90
20973;DHT22;10645;52.370;13.314;2024-03-22T02:17:01;7.00;99.90
20973;DHT22;10645;52.370;13.314;2024-03-22T02:19:27;7.00;99.90
20973;DHT22;10645;52.370;13.314;2024-03-22T02:21:53;7.00;99.90
20973;DHT22;10645;52.370;13.314;2024-03-22T02:24:19;7.00;99.90
20973;DHT22;10645;52.370;13.314;2024-03-22T02:26:45;7.00;99.90
20973;DHT22;10645;52.370;13.314;2024-03-22T02:29:11;6.90;99.90
20973;DHT22;10645;52.370;13.314;2024-03-22T02:31:38;6.90;99.90
20973;DHT22;10645;52.370;13.314;2024-03-22T02:34:04;6.90;99.90
20973;DHT22;10645;52.370;13.314;2024-03-22T02:36:30;6.90;99.90
20973;DHT22;10645;52.370;13.314;2024-03-22T02:38:56;6.90;99.90
20973;DHT22;10645;52.370;13.314;2024-03-22T02:41:22;7.00;99.90
20973;DHT22;10645;52.370;13.314;2024-03-22T02:43:48;7.00;99.90
20973;DHT22;10645;52.370;13.314;2024-03-22T02:46:14;7.00;99.90
20973;DHT22;10645;52.370;13.314;2024-03-22T02:48:40;7.00;99.90
20973;DHT22;10645;52.370;13.314;2024-03-22T02:51:06;7.00;99.90
20973;DHT22;10645;52.370;13.314;2024-03-22T02:53:32;7.00;99.90
20973;DHT22;10645;52.370;13.314;2024-03-22T02:56:00;7.00;99.90
20973;DHT22;10645;52.370;13.314;2024-03-22T02:58:26;7.00;99.90
20973;DHT22;10645;52.370;13.314;2024-03-22T03:00:52;7.00;99.90
20973;DHT22;10645;52.370;13.314;2024-03-22T03:03:19;7.00;99.90
20973;DHT22;10645;52.370;13.314;2024-03-22T03:05:45;7.00;99.90
20973;DHT22;10645;52.370;13.314;2024-03-22T03:08:11;7.00;99.90
20973;DHT22;10645;52.370;13.314;2024-03-22T03:10:37;7.00;99.90
20973;DHT22;10645;52.370;13.314;2024-03-22T03:13:03;7.00;99.90
20973;DHT22;10645;52.370;13.314;2024-03-22T03:15:29;7.00;99.90
20973;DHT22;10645;52.370;13.314;2024-03-22T03:17:55;7.00;99.90
20973;DHT22;10645;52.370;13.314;2024-03-22T03:20:21;7.00;99.90
20973;DHT22;10645;52.370;13.314;2024-03-22T03:22:47;7.10;99.90
20973;DHT22;10645;52.370;13.314;2024-03-22T03:25:13;7.10;99.90
20973;DHT22;10645;52.370;13.314;2024-03-22T03:27:39;7.10;99.90
20973;DHT22;10645;52.370;13.314;2024-03-22T03:30:06;7.10;99.90
20973;DHT22;10645;52.370;13.314;2024-03-22T03:32:32;7.10;99.90
20973;DHT22;10645;52.370;13.314;2024-03-22T03:34:58;7.10;99.90
20973;DHT22;10645;52.370;13.314;2024-03-22T03:37:24;7.10;99.90
20973;DHT22;10645;52.370;13.314;2024-03-22T03:39:50;7.10;99.90
20973;DHT22;10645;52.370;13.314;2024-03-22T03:42:16;7.10;99.90
20973;DHT22;10645;52.370;13.314;2024-03-22T03:44:42;7.10;99.90
20973;DHT22;10645;52.370;13.314;2024-03-22T03:47:09;7.10;99.90
20973;DHT22;10645;52.370;13.314;2024-03-22T03:49:35;7.10;99.90
20973;DHT22;10645;52.370;13.314;2024-03-22T03:52:01;7.10;99.90
20973;DHT22;10645;52.370;13.314;2024-03-22T03:54:27;7.10;99.90
20973;DHT22;10645;52.370;13.314;2024-03-22T03:56:53;7.10;99.90
20973;DHT22;10645;52.370;13.314;2024-03-22T03:59:19;7.20;99.90
20973;DHT22;10645;52.370;13.314;2024-03-22T04:01:45;7.20;99.90
20973;DHT22;10645;52.370;13.314;2024-03-22T04:04:12;7.20;99.90
20973;DHT22;10645;52.370;13.314;2024-03-22T04:06:38;7.20;99.90
20973;DHT22;10645;52.370;13.314;2024-03-22T04:09:04;7.20;99.90
20973;DHT22;10645;52.370;13.314;2024-03-22T04:11:31;7.10;99.90
20973;DHT22;10645;52.370;13.314;2024-03-22T04:14:00;7.20;99.90
20973;DHT22;10645;52.370;13.314;2024-03-22T04:16:26;7.20;99.90
20973;DHT22;10645;52.370;13.314;2024-03-22T04:18:53;7.20;99.90
20973;DHT22;10645;52.370;13.314;2024-03-22T04:21:19;7.20;99.90
20973;DHT22;10645;52.370;13.314;2024-03-22T04:23:45;7.30;99.90
20973;DHT22;10645;52.370;13.314;2024-03-22T04:26:11;7.30;99.90
20973;DHT22;10645;52.370;13.314;2024-03-22T04:28:38;7.30;99.90
20973;DHT22;10645;52.370;13.314;2024-03-22T04:31:06;7.30;99.90
20973;DHT22;10645;52.370;13.314;2024-03-22T04:33:36;7.30;99.90
20973;DHT22;10645;52.370;13.314;2024-03-22T04:36:03;7.30;99.90
20973;DHT22;10645;52.370;13.314;2024-03-22T04:38:30;7.30;99.90
20973;DHT22;10645;52.370;13.314;2024-03-22T04:40:56;7.30;99.90
20973;DHT22;10645;52.370;13.314;2024-03-22T04:43:23;7.30;99.90
20973;DHT22;10645;52.370;13.314;2024-03-22T04:45:50;7.30;99.90
20973;DHT22;10645;52.370;13.314;2024-03-22T04:48:18;7.40;99.90
20973;DHT22;10645;52.370;13.314;2024-03-22T04:50:48;7.30;99.90
20973;DHT22;10645;52.370;13.314;2024-03-22T04:53:22;7.40;99.90
20973;DHT22;10645;52.370;13.314;2024-03-22T04:55:49;7.40;99.90
20973;DHT22;10645;52.370;13.314;2024-03-22T05:00:42;7.40;99.90
20973;DHT22;10645;52.370;13.314;2024-03-22T05:03:08;7.30;99.90
20973;DHT22;10645;52.370;13.314;2024-03-22T05:05:36;7.30;99.90
20973;DHT22;10645;52.370;13.314;2024-03-22T05:08:02;7.30;99.90
20973;DHT22;10645;52.370;13.314;2024-03-22T05:10:29;7.30;99.90
20973;DHT22;10645;52.370;13.314;2024-03-22T05:12:58;7.30;99.90
20973;DHT22;10645;52.370;13.314;2024-03-22T05:15:25;7.30;99.90
20973;DHT22;10645;52.370;13.314;2024-03-22T05:17:51;7.30;99.90
20973;DHT22;10645;52.370;13.314;2024-03-22T05:20:17;7.30;99.90
20973;DHT22;10645;52.370;13.314;2024-03-22T05:22:44;7.30;99.90
20973;DHT22;10645;52.370;13.314;2024-03-22T05:25:10;7.30;99.90
20973;DHT22;10645;52.370;13.314;2024-03-22T05:27:36;7.30;99.90
20973;DHT22;10645;52.370;13.314;2024-03-22T05:30:03;7.30;99.90
20973;DHT22;10645;52.370;13.314;2024-03-22T05:32:31;7.30;99.90
20973;DHT22;10645;52.370;13.314;2024-03-22T05:34:57;7.30;99.90
20973;DHT22;10645;52.370;13.314;2024-03-22T05:37:23;7.40;99.90
20973;DHT22;10645;52.370;13.314;2024-03-22T05:39:49;7.40;99.90
20973;DHT22;10645;52.370;13.314;2024-03-22T05:42:16;7.40;99.90
20973;DHT22;10645;52.370;13.314;2024-03-22T05:44:42;7.40;99.90
20973;DHT22;10645;52.370;13.314;2024-03-22T05:47:08;7.40;99.90
20973;DHT22;10645;52.370;13.314;2024-03-22T05:49:34;7.40;99.90
20973;DHT22;10645;52.370;13.314;2024-03-22T05:52:01;7.50;99.90
20973;DHT22;10645;52.370;13.314;2024-03-22T05:54:27;7.50;99.90
20973;DHT22;10645;52.370;13.314;2024-03-22T05:56:53;7.60;99.90
20973;DHT22;10645;52.370;13.314;2024-03-22T05:59:19;7.60;99.90
20973;DHT22;10645;52.370;13.314;2024-03-22T06:01:45;7.70;99.90
20973;DHT22;10645;52.370;13.314;2024-03-22T06:04:11;7.80;99.90
20973;DHT22;10645;52.370;13.314;2024-03-22T06:06:37;7.80;99.90
20973;DHT22;10645;52.370;13.314;2024-03-22T06:09:04;7.80;99.90
20973;DHT22;10645;52.370;13.314;2024-03-22T06:11:31;7.90;99.90
20973;DHT22;10645;52.370;13.314;2024-03-22T06:13:57;8.00;99.90
20973;DHT22;10645;52.370;13.314;2024-03-22T06:16:23;8.00;99.90
20973;DHT22;10645;52.370;13.314;2024-03-22T06:18:49;8.00;99.90
20973;DHT22;10645;52.370;13.314;2024-03-22T06:21:15;8.00;99.90
20973;DHT22;10645;52.370;13.314;2024-03-22T06:23:50;8.00;99.90
20973;DHT22;10645;52.370;13.314;2024-03-22T06:26:17;8.10;99.90
20973;DHT22;10645;52.370;13.314;2024-03-22T06:28:44;8.10;99.90
20973;DHT22;10645;52.370;13.314;2024-03-22T06:31:10;8.20;99.90
20973;DHT22;10645;52.370;13.314;2024-03-22T06:33:36;8.20;99.90
20973;DHT22;10645;52.370;13.314;2024-03-22T06:36:02;8.20;99.90
20973;DHT22;10645;52.370;13.314;2024-03-22T06:38:29;8.20;99.90
20973;DHT22;10645;52.370;13.314;2024-03-22T06:40:55;8.20;99.90
20973;DHT22;10645;52.370;13.314;2024-03-22T06:43:21;8.30;99.90
20973;DHT22;10645;52.370;13.314;2024-03-22T06:45:48;8.30;99.90
20973;DHT22;10645;52.370;13.314;2024-03-22T06:48:14;8.40;99.90
20973;DHT22;10645;52.370;13.314;2024-03-22T06:50:42;8.40;99.90
20973;DHT22;10645;52.370;13.314;2024-03-22T06:53:09;8.50;99.90
20973;DHT22;10645;52.370;13.314;2024-03-22T06:55:38;8.60;99.90
20973;DHT22;10645;52.370;13.314;2024-03-22T06:58:04;8.60;99.90
20973;DHT22;10645;52.370;13.314;2024-03-22T07:00:30;8.70;99.90
20973;DHT22;10645;52.370;13.314;2024-03-22T07:02:56;8.70;99.90
20973;DHT22;10645;52.370;13.314;2024-03-22T07:05:22;8.70;99.90
20973;DHT22;10645;52.370;13.314;2024-03-22T07:07:48;8.80;99.90
20973;DHT22;10645;52.370;13.314;2024-03-22T07:10:16;8.90;99.90
20973;DHT22;10645;52.370;13.314;2024-03-22T07:12:42;8.90;99.90
20973;DHT22;10645;52.370;13.314;2024-03-22T07:15:09;9.00;99.90
20973;DHT22;10645;52.370;13.314;2024-03-22T07:17:35;9.10;99.90
20973;DHT22;10645;52.370;13.314;2024-03-22T07:20:01;9.10;99.90
20973;DHT22;10645;52.370;13.314;2024-03-22T07:22:28;9.20;99.90
20973;DHT22;10645;52.370;13.314;2024-03-22T07:24:54;9.30;99.90
20973;DHT22;10645;52.370;13.314;2024-03-22T07:27:21;9.40;99.90
20973;DHT22;10645;52.370;13.314;2024-03-22T07:29:47;9.50;99.90
20973;DHT22;10645;52.370;13.314;2024-03-22T07:32:13;9.60;99.90
20973;DHT22;10645;52.370;13.314;2024-03-22T07:34:39;9.60;99.90
20973;DHT22;10645;52.370;13.314;2024-03-22T07:37:05;9.60;99.90
20973;DHT22;10645;52.370;13.314;2024-03-22T07:39:31;9.60;99.90
20973;DHT22;10645;52.370;13.314;2024-03-22T07:41:58;9.70;99.90
20973;DHT22;10645;52.370;13.314;2024-03-22T07:44:24;9.80;99.90
20973;DHT22;10645;52.370;13.314;2024-03-22T07:46:50;9.70;99.90
20973;DHT22;10645;52.370;13.314;2024-03-22T07:49:17;9.70;99.90
20973;DHT22;10645;52.370;13.314;2024-03-22T07:51:43;9.70;99.90
20973;DHT22;10645;52.370;13.314;2024-03-22T07:54:09;9.70;99.90
20973;DHT22;10645;52.370;13.314;2024-03-22T07:56:35;9.60;99.90
20973;DHT22;10645;52.370;13.314;2024-03-22T07:59:01;9.60;99.90
20973;DHT22;10645;52.370;13.314;2024-03-22T08:01:27;9.60;99.90
20973;DHT22;10645;52.370;13.314;2024-03-22T08:03:53;9.60;99.90
20973;DHT22;10645;52.370;13.314;2024-03-22T08:06:19;9.70;99.90
20973;DHT22;10645;52.370;13.314;2024-03-22T08:08:45;9.80;99.90
20973;DHT22;10645;52.370;13.314;2024-03-22T08:11:12;9.90;99.90
20973;DHT22;10645;52.370;13.314;2024-03-22T08:13:38;10.00;99.90
20973;DHT22;10645;52.370;13.314;2024-03-22T08:16:04;10.20;99.90
20973;DHT22;10645;52.370;13.314;2024-03-22T08:18:32;10.20;99.90
20973;DHT22;10645;52.370;13.314;2024-03-22T08:21:01;10.30;99.90
20973;DHT22;10645;52.370;13.314;2024-03-22T08:23:28;10.40;99.90
20973;DHT22;10645;52.370;13.314;2024-03-22T08:25:54;10.40;99.90
20973;DHT22;10645;52.370;13.314;2024-03-22T08:28:20;10.40;99.90
20973;DHT22;10645;52.370;13.314;2024-03-22T08:30:46;10.50;99.90
20973;DHT22;10645;52.370;13.314;2024-03-22T08:33:12;10.50;99.90
20973;DHT22;10645;52.370;13.314;2024-03-22T08:35:39;10.60;99.90
20973;DHT22;10645;52.370;13.314;2024-03-22T08:38:05;10.60;99.90
20973;DHT22;10645;52.370;13.314;2024-03-22T08:40:39;10.70;99.90
20973;DHT22;10645;52.370;13.314;2024-03-22T08:43:06;10.70;99.90
20973;DHT22;10645;52.370;13.314;2024-03-22T08:45:35;10.60;99.90
20973;DHT22;10645;52.370;13.314;2024-03-22T08:48:01;10.60;99.90
20973;DHT22;10645;52.370;13.314;2024-03-22T08:50:28;10.60;99.90
20973;DHT22;10645;52.370;13.314;2024-03-22T08:52:54;10.60;99.90
20973;DHT22;10645;52.370;13.314;2024-03-22T08:55:20;10.70;99.90
20973;DHT22;10645;52.370;13.314;2024-03-22T08:57:46;10.70;99.90
20973;DHT22;10645;52.370;13.314;2024-03-22T09:00:12;10.70;99.90
20973;DHT22;10645;52.370;13.314;2024-03-22T09:02:39;10.70;99.90
20973;DHT22;10645;52.370;13.314;2024-03-22T09:05:05;10.70;99.90
20973;DHT22;10645;52.370;13.314;2024-03-22T09:07:32;10.70;99.90
20973;DHT22;10645;52.370;13.314;2024-03-22T09:09:58;10.80;99.90
20973;DHT22;10645;52.370;13.314;2024-03-22T09:12:24;10.90;99.90
20973;DHT22;10645;52.370;13.314;2024-03-22T09:14:50;11.00;99.90
20973;DHT22;10645;52.370;13.314;2024-03-22T09:17:16;11.20;99.90
20973;DHT22;10645;52.370;13.314;2024-03-22T09:19:42;11.20;99.90
20973;DHT22;10645;52.370;13.314;2024-03-22T09:22:08;11.30;99.90
20973;DHT22;10645;52.370;13.314;2024-03-22T09:24:34;11.40;99.90
20973;DHT22;10645;52.370;13.314;2024-03-22T09:27:00;11.70;99.90
20973;DHT22;10645;52.370;13.314;2024-03-22T09:29:26;11.90;99.90
20973;DHT22;10645;52.370;13.314;2024-03-22T09:31:53;12.20;99.90
20973;DHT22;10645;52.370;13.314;2024-03-22T09:34:19;12.30;99.90
20973;DHT22;10645;52.370;13.314;2024-03-22T09:36:45;12.40;99.90
20973;DHT22;10645;52.370;13.314;2024-03-22T09:39:11;12.30;99.90
20973;DHT22;10645;52.370;13.314;2024-03-22T09:41:43;12.20;99.90
20973;DHT22;10645;52.370;13.314;2024-03-22T09:44:13;12.20;99.90
20973;DHT22;10645;52.370;13.314;2024-03-22T09:46:45;12.10;99.90
20973;DHT22;10645;52.370;13.314;2024-03-22T09:49:12;12.20;99.90
20973;DHT22;10645;52.370;13.314;2024-03-22T09:51:39;12.10;99.90
20973;DHT22;10645;52.370;13.314;2024-03-22T09:54:08;12.00;99.90
20973;DHT22;10645;52.370;13.314;2024-03-22T09:56:35;12.00;99.90
20973;DHT22;10645;52.370;13.314;2024-03-22T09:59:04;12.00;99.90
20973;DHT22;10645;52.370;13.314;2024-03-22T10:01:31;12.00;99.90
20973;DHT22;10645;52.370;13.314;2024-03-22T10:03:57;12.10;99.90
20973;DHT22;10645;52.370;13.314;2024-03-22T10:06:23;12.20;99.90
20973;DHT22;10645;52.370;13.314;2024-03-22T10:08:49;12.30;99.90
20973;DHT22;10645;52.370;13.314;2024-03-22T10:11:16;12.50;99.90
20973;DHT22;10645;52.370;13.314;2024-03-22T10:13:42;12.60;99.90
20973;DHT22;10645;52.370;13.314;2024-03-22T10:16:08;12.50;99.90
20973;DHT22;10645;52.370;13.314;2024-03-22T10:18:34;12.60;99.90
20973;DHT22;10645;52.370;13.314;2024-03-22T10:21:04;12.70;99.90
20973;DHT22;10645;52.370;13.314;2024-03-22T10:23:31;12.70;99.90
20973;DHT22;10645;52.370;13.314;2024-03-22T10:25:58;12.80;99.90
20973;DHT22;10645;52.370;13.314;2024-03-22T10:28:25;12.90;99.90
20973;DHT22;10645;52.370;13.314;2024-03-22T10:30:52;13.10;99.90
20973;DHT22;10645;52.370;13.314;2024-03-22T10:33:20;13.20;99.90
20973;DHT22;10645;52.370;13.314;2024-03-22T10:35:52;13.40;99.90
20973;DHT22;10645;52.370;13.314;2024-03-22T10:38:21;13.40;99.90
20973;DHT22;10645;52.370;13.314;2024-03-22T10:40:48;13.50;99.90
20973;DHT22;10645;52.370;13.314;2024-03-22T10:43:15;13.60;99.90
20973;DHT22;10645;52.370;13.314;2024-03-22T10:45:41;13.70;99.90
20973;DHT22;10645;52.370;13.314;2024-03-22T10:48:11;13.70;99.90
20973;DHT22;10645;52.370;13.314;2024-03-22T10:50:42;13.70;99.90
20973;DHT22;10645;52.370;13.314;2024-03-22T10:53:18;13.70;99.90
20973;DHT22;10645;52.370;13.314;2024-03-22T10:55:49;13.70;99.90
20973;DHT22;10645;52.370;13.314;2024-03-22T10:58:21;13.80;99.90
20973;DHT22;10645;52.370;13.314;2024-03-22T11:00:47;13.90;99.90
20973;DHT22;10645;52.370;13.314;2024-03-22T11:03:13;14.10;99.90
20973;DHT22;10645;52.370;13.314;2024-03-22T11:05:49;14.20;99.90
20973;DHT22;10645;52.370;13.314;2024-03-22T11:08:30;14.20;99.90
20973;DHT22;10645;52.370;13.314;2024-03-22T11:11:12;14.10;99.90
20973;DHT22;10645;52.370;13.314;2024-03-22T11:13:41;14.00;99.90
20973;DHT22;10645;52.370;13.314;2024-03-22T11:16:09;13.70;99.90
20973;DHT22;10645;52.370;13.314;2024-03-22T11:18:36;13.60;99.90
20973;DHT22;10645;52.370;13.314;2024-03-22T11:21:02;13.50;99.90
20973;DHT22;10645;52.370;13.314;2024-03-22T11:23:30;13.50;99.90
20973;DHT22;10645;52.370;13.314;2024-03-22T11:25:56;13.50;99.90
20973;DHT22;10645;52.370;13.314;2024-03-22T11:28:23;13.40;99.90
20973;DHT22;10645;52.370;13.314;2024-03-22T11:30:49;13.30;99.90
20973;DHT22;10645;52.370;13.314;2024-03-22T11:33:16;13.20;99.90
20973;DHT22;10645;52.370;13.314;2024-03-22T11:35:42;13.10;99.90
20973;DHT22;10645;52.370;13.314;2024-03-22T11:38:10;13.10;99.90
20973;DHT22;10645;52.370;13.314;2024-03-22T11:40:36;13.20;99.90
20973;DHT22;10645;52.370;13.314;2024-03-22T11:43:03;13.30;99.90
20973;DHT22;10645;52.370;13.314;2024-03-22T11:45:29;13.30;99.90
20973;DHT22;10645;52.370;13.314;2024-03-22T11:48:02;13.40;99.90
20973;DHT22;10645;52.370;13.314;2024-03-22T11:50:29;13.50;99.90
20973;DHT22;10645;52.370;13.314;2024-03-22T11:52:55;13.40;99.90
20973;DHT22;10645;52.370;13.314;2024-03-22T11:55:22;13.30;99.90
20973;DHT22;10645;52.370;13.314;2024-03-22T11:57:49;13.20;99.90
20973;DHT22;10645;52.370;13.314;2024-03-22T12:00:18;13.10;99.90
20973;DHT22;10645;52.370;13.314;2024-03-22T12:02:45;13.10;99.90
20973;DHT22;10645;52.370;13.314;2024-03-22T12:05:11;13.00;99.90
20973;DHT22;10645;52.370;13.314;2024-03-22T12:07:38;12.90;99.90
20973;DHT22;10645;52.370;13.314;2024-03-22T12:10:05;12.90;99.90
20973;DHT22;10645;52.370;13.314;2024-03-22T12:12:31;12.90;99.90
20973;DHT22;10645;52.370;13.314;2024-03-22T12:14:57;12.80;99.90
20973;DHT22;10645;52.370;13.314;2024-03-22T12:17:23;12.80;99.90
20973;DHT22;10645;52.370;13.314;2024-03-22T12:19:49;12.70;99.90
20973;DHT22;10645;52.370;13.314;2024-03-22T12:22:15;12.80;99.90
20973;DHT22;10645;52.370;13.314;2024-03-22T12:24:41;12.80;99.90
20973;DHT22;10645;52.370;13.314;2024-03-22T12:27:08;12.80;99.90
20973;DHT22;10645;52.370;13.314;2024-03-22T12:29:34;12.70;99.90
20973;DHT22;10645;52.370;13.314;2024-03-22T12:32:04;12.70;99.90
20973;DHT22;10645;52.370;13.314;2024-03-22T12:34:31;12.70;99.90
20973;DHT22;10645;52.370;13.314;2024-03-22T12:36:58;12.60;99.90
20973;DHT22;10645;52.370;13.314;2024-03-22T12:39:25;12.50;99.90
20973;DHT22;10645;52.370;13.314;2024-03-22T12:41:51;12.50;99.90
20973;DHT22;10645;52.370;13.314;2024-03-22T12:44:18;12.40;99.90
20973;DHT22;10645;52.370;13.314;2024-03-22T12:46:44;12.40;99.90
20973;DHT22;10645;52.370;13.314;2024-03-22T12:49:11;12.20;99.90
20973;DHT22;10645;52.370;13.314;2024-03-22T12:51:37;12.20;99.90
20973;DHT22;10645;52.370;13.314;2024-03-22T12:54:04;12.20;99.90
20973;DHT22;10645;52.370;13.314;2024-03-22T12:56:31;12.10;99.90
20973;DHT22;10645;52.370;13.314;2024-03-22T12:58:58;12.20;99.90
20973;DHT22;10645;52.370;13.314;2024-03-22T13:01:25;12.10;99.90
20973;DHT22;10645;52.370;13.314;2024-03-22T13:03:51;12.20;99.90
20973;DHT22;10645;52.370;13.314;2024-03-22T13:06:17;12.20;99.90
20973;DHT22;10645;52.370;13.314;2024-03-22T13:08:44;12.10;99.90
20973;DHT22;10645;52.370;13.314;2024-03-22T13:11:10;12.00;99.90
20973;DHT22;10645;52.370;13.314;2024-03-22T13:13:36;11.90;99.90
20973;DHT22;10645;52.370;13.314;2024-03-22T13:16:03;11.90;99.90
20973;DHT22;10645;52.370;13.314;2024-03-22T13:18:29;11.80;99.90
20973;DHT22;10645;52.370;13.314;2024-03-22T13:20:55;11.90;99.90
20973;DHT22;10645;52.370;13.314;2024-03-22T13:23:22;11.90;99.90
20973;DHT22;10645;52.370;13.314;2024-03-22T13:25:48;11.80;99.90
20973;DHT22;10645;52.370;13.314;2024-03-22T13:28:15;11.80;99.90
20973;DHT22;10645;52.370;13.314;2024-03-22T13:30:46;11.80;99.90
20973;DHT22;10645;52.370;13.314;2024-03-22T13:33:12;11.70;99.90
20973;DHT22;10645;52.370;13.314;2024-03-22T13:35:39;11.70;99.90
20973;DHT22;10645;52.370;13.314;2024-03-22T13:38:07;11.70;99.90
20973;DHT22;10645;52.370;13.314;2024-03-22T13:40:39;11.70;99.90
20973;DHT22;10645;52.370;13.314;2024-03-22T13:43:06;11.70;99.90
20973;DHT22;10645;52.370;13.314;2024-03-22T13:45:33;11.70;99.90
20973;DHT22;10645;52.370;13.314;2024-03-22T13:48:10;11.70;99.90
20973;DHT22;10645;52.370;13.314;2024-03-22T13:50:36;11.70;99.90
20973;DHT22;10645;52.370;13.314;2024-03-22T13:53:02;11.90;99.90
20973;DHT22;10645;52.370;13.314;2024-03-22T13:55:29;11.90;99.90
20973;DHT22;10645;52.370;13.314;2024-03-22T13:57:55;12.00;99.90
20973;DHT22;10645;52.370;13.314;2024-03-22T14:00:21;12.10;99.90
20973;DHT22;10645;52.370;13.314;2024-03-22T14:02:47;12.10;99.90
20973;DHT22;10645;52.370;13.314;2024-03-22T14:05:18;12.10;99.90
20973;DHT22;10645;52.370;13.314;2024-03-22T14:07:44;12.20;99.90
20973;DHT22;10645;52.370;13.314;2024-03-22T14:10:10;12.20;99.90
20973;DHT22;10645;52.370;13.314;2024-03-22T14:12:38;12.20;99.90
20973;DHT22;10645;52.370;13.314;2024-03-22T14:15:05;12.20;99.90
20973;DHT22;10645;52.370;13.314;2024-03-22T14:17:32;12.20;99.90
20973;DHT22;10645;52.370;13.314;2024-03-22T14:19:58;12.20;99.90
20973;DHT22;10645;52.370;13.314;2024-03-22T14:22:25;12.20;99.90
20973;DHT22;10645;52.370;13.314;2024-03-22T14:24:51;12.10;99.90
20973;DHT22;10645;52.370;13.314;2024-03-22T14:27:18;12.10;99.90
20973;DHT22;10645;52.370;13.314;2024-03-22T14:29:46;12.10;99.90
20973;DHT22;10645;52.370;13.314;2024-03-22T14:32:12;12.10;99.90
20973;DHT22;10645;52.370;13.314;2024-03-22T14:34:38;12.10;99.90
20973;DHT22;10645;52.370;13.314;2024-03-22T14:37:04;12.00;99.90
20973;DHT22;10645;52.370;13.314;2024-03-22T14:39:30;12.00;99.90
20973;DHT22;10645;52.370;13.314;2024-03-22T14:41:57;12.00;99.90
20973;DHT22;10645;52.370;13.314;2024-03-22T14:44:23;11.90;99.90
20973;DHT22;10645;52.370;13.314;2024-03-22T14:46:49;12.00;99.90
20973;DHT22;10645;52.370;13.314;2024-03-22T14:49:16;12.00;99.90
20973;DHT22;10645;52.370;13.314;2024-03-22T14:51:42;12.00;99.90
20973;DHT22;10645;52.370;13.314;2024-03-22T14:54:08;12.00;99.90
20973;DHT22;10645;52.370;13.314;2024-03-22T14:56:34;12.00;99.90
20973;DHT22;10645;52.370;13.314;2024-03-22T14:59:00;12.00;99.90
20973;DHT22;10645;52.370;13.314;2024-03-22T15:01:27;12.00;99.90
20973;DHT22;10645;52.370;13.314;2024-03-22T15:03:53;11.90;99.90
20973;DHT22;10645;52.370;13.314;2024-03-22T15:06:19;11.80;99.90
20973;DHT22;10645;52.370;13.314;2024-03-22T15:08:46;11.80;99.90
20973;DHT22;10645;52.370;13.314;2024-03-22T15:11:12;11.80;99.90
20973;DHT22;10645;52.370;13.314;2024-03-22T15:13:38;11.80;99.90
20973;DHT22;10645;52.370;13.314;2024-03-22T15:16:04;11.80;99.90
20973;DHT22;10645;52.370;13.314;2024-03-22T15:18:31;11.80;99.90
20973;DHT22;10645;52.370;13.314;2024-03-22T15:20:57;11.80;99.90
20973;DHT22;10645;52.370;13.314;2024-03-22T15:23:23;11.80;99.90